sensor_id;sensor_type;location;lat;lon;timestamp;P1;durP1;ratioP1;P2;durP2;ratioP2
33810;SDS011;20119;48.334;16.206;2022-08-19T00:00:37;9.65;;;5.97;;
33810;SDS011;20119;48.334;16.206;2022-08-19T00:03:06;11.35;;;5.63;;
33810;SDS011;20119;48.334;16.206;2022-08-19T00:05:33;10.65;;;6.07;;
33810;SDS011;20119;48.334;16.206;2022-08-19T00:08:01;9.02;;;5.75;;
33810;SDS011;20119;48.334;16.206;2022-08-19T00:10:31;12.57;;;6.20;;
33810;SDS011;20119;48.334;16.206;2022-08-19T00:12:59;14.20;;;6.10;;
33810;SDS011;20119;48.334;16.206;2022-08-19T00:15:29;13.98;;;6.05;;
33810;SDS011;20119;48.334;16.206;2022-08-19T00:17:57;12.25;;;7.28;;
33810;SDS011;20119;48.334;16.206;2022-08-19T00:20:25;9.73;;;6.32;;
33810;SDS011;20119;48.334;16.206;2022-08-19T00:22:53;12.43;;;6.57;;
33810;SDS011;20119;48.334;16.206;2022-08-19T00:25:21;8.50;;;5.80;;
33810;SDS011;20119;48.334;16.206;2022-08-19T00:27:50;12.20;;;7.07;;
33810;SDS011;20119;48.334;16.206;2022-08-19T00:30:17;10.65;;;6.82;;
33810;SDS011;20119;48.334;16.206;2022-08-19T00:32:44;11.80;;;6.90;;
33810;SDS011;20119;48.334;16.206;2022-08-19T00:35:11;10.48;;;6.22;;
33810;SDS011;20119;48.334;16.206;2022-08-19T00:37:40;9.77;;;6.15;;
33810;SDS011;20119;48.334;16.206;2022-08-19T00:40:10;9.98;;;5.68;;
33810;SDS011;20119;48.334;16.206;2022-08-19T00:47:51;14.15;;;7.18;;
33810;SDS011;20119;48.334;16.206;2022-08-19T00:50:18;9.10;;;6.28;;
33810;SDS011;20119;48.334;16.206;2022-08-19T00:52:49;10.18;;;5.78;;
33810;SDS011;20119;48.334;16.206;2022-08-19T00:55:23;11.48;;;6.20;;
33810;SDS011;20119;48.334;16.206;2022-08-19T00:57:55;13.30;;;6.40;;
33810;SDS011;20119;48.334;16.206;2022-08-19T01:00:27;11.02;;;6.90;;
33810;SDS011;20119;48.334;16.206;2022-08-19T01:08:01;12.07;;;7.75;;
33810;SDS011;20119;48.334;16.206;2022-08-19T01:13:06;15.20;;;8.23;;
33810;SDS011;20119;48.334;16.206;2022-08-19T01:15:34;17.85;;;10.18;;
33810;SDS011;20119;48.334;16.206;2022-08-19T01:18:12;16.92;;;10.45;;
33810;SDS011;20119;48.334;16.206;2022-08-19T01:20:42;13.52;;;8.85;;
33810;SDS011;20119;48.334;16.206;2022-08-19T01:23:11;15.52;;;10.20;;
33810;SDS011;20119;48.334;16.206;2022-08-19T01:25:41;14.85;;;8.70;;
33810;SDS011;20119;48.334;16.206;2022-08-19T01:30:44;15.43;;;8.18;;
33810;SDS011;20119;48.334;16.206;2022-08-19T01:33:12;15.02;;;9.02;;
33810;SDS011;20119;48.334;16.206;2022-08-19T01:35:40;18.23;;;11.48;;
33810;SDS011;20119;48.334;16.206;2022-08-19T01:38:09;18.10;;;9.73;;
33810;SDS011;20119;48.334;16.206;2022-08-19T01:40:49;20.30;;;11.35;;
33810;SDS011;20119;48.334;16.206;2022-08-19T01:45:51;18.77;;;11.43;;
33810;SDS011;20119;48.334;16.206;2022-08-19T01:48:19;18.10;;;10.77;;
33810;SDS011;20119;48.334;16.206;2022-08-19T01:50:47;18.02;;;10.93;;
33810;SDS011;20119;48.334;16.206;2022-08-19T01:53:17;14.88;;;8.63;;
33810;SDS011;20119;48.334;16.206;2022-08-19T01:55:44;14.13;;;7.78;;
33810;SDS011;20119;48.334;16.206;2022-08-19T01:58:13;11.88;;;7.30;;
33810;SDS011;20119;48.334;16.206;2022-08-19T02:00:45;15.68;;;7.43;;
33810;SDS011;20119;48.334;16.206;2022-08-19T02:03:14;14.07;;;7.90;;
33810;SDS011;20119;48.334;16.206;2022-08-19T02:05:42;13.18;;;7.60;;
33810;SDS011;20119;48.334;16.206;2022-08-19T02:08:11;15.85;;;7.72;;
33810;SDS011;20119;48.334;16.206;2022-08-19T02:10:41;12.95;;;7.88;;
33810;SDS011;20119;48.334;16.206;2022-08-19T02:13:10;12.48;;;8.85;;
33810;SDS011;20119;48.334;16.206;2022-08-19T02:15:38;13.82;;;8.55;;
33810;SDS011;20119;48.334;16.206;2022-08-19T02:18:08;18.83;;;9.90;;
33810;SDS011;20119;48.334;16.206;2022-08-19T02:20:42;16.50;;;9.00;;
33810;SDS011;20119;48.334;16.206;2022-08-19T02:25:47;18.13;;;9.57;;
33810;SDS011;20119;48.334;16.206;2022-08-19T02:28:14;15.82;;;9.85;;
33810;SDS011;20119;48.334;16.206;2022-08-19T02:35:52;17.58;;;9.70;;
33810;SDS011;20119;48.334;16.206;2022-08-19T02:38:19;15.10;;;9.15;;
33810;SDS011;20119;48.334;16.206;2022-08-19T02:41:03;16.67;;;9.65;;
33810;SDS011;20119;48.334;16.206;2022-08-19T02:43:35;17.30;;;10.50;;
33810;SDS011;20119;48.334;16.206;2022-08-19T02:46:10;18.95;;;9.52;;
33810;SDS011;20119;48.334;16.206;2022-08-19T02:48:39;17.85;;;9.45;;
33810;SDS011;20119;48.334;16.206;2022-08-19T02:51:07;16.63;;;9.48;;
33810;SDS011;20119;48.334;16.206;2022-08-19T02:53:35;15.48;;;9.75;;
33810;SDS011;20119;48.334;16.206;2022-08-19T02:56:07;12.52;;;9.05;;
33810;SDS011;20119;48.334;16.206;2022-08-19T02:58:37;15.40;;;8.23;;
33810;SDS011;20119;48.334;16.206;2022-08-19T03:01:05;15.63;;;8.63;;
33810;SDS011;20119;48.334;16.206;2022-08-19T03:03:33;11.75;;;8.38;;
33810;SDS011;20119;48.334;16.206;2022-08-19T03:06:08;14.13;;;8.50;;
33810;SDS011;20119;48.334;16.206;2022-08-19T03:08:38;15.52;;;8.77;;
33810;SDS011;20119;48.334;16.206;2022-08-19T03:11:16;12.80;;;7.57;;
33810;SDS011;20119;48.334;16.206;2022-08-19T03:13:46;13.68;;;7.90;;
33810;SDS011;20119;48.334;16.206;2022-08-19T03:16:15;14.30;;;8.60;;
33810;SDS011;20119;48.334;16.206;2022-08-19T03:18:44;15.85;;;9.02;;
33810;SDS011;20119;48.334;16.206;2022-08-19T03:21:15;12.07;;;8.15;;
33810;SDS011;20119;48.334;16.206;2022-08-19T03:23:42;15.25;;;8.07;;
33810;SDS011;20119;48.334;16.206;2022-08-19T03:26:14;14.75;;;7.43;;
33810;SDS011;20119;48.334;16.206;2022-08-19T03:28:41;13.63;;;7.75;;
33810;SDS011;20119;48.334;16.206;2022-08-19T03:31:10;11.25;;;7.78;;
33810;SDS011;20119;48.334;16.206;2022-08-19T03:33:42;14.30;;;8.25;;
33810;SDS011;20119;48.334;16.206;2022-08-19T03:36:11;13.18;;;8.75;;
33810;SDS011;20119;48.334;16.206;2022-08-19T03:38:40;12.80;;;7.80;;
33810;SDS011;20119;48.334;16.206;2022-08-19T03:41:10;11.05;;;7.53;;
33810;SDS011;20119;48.334;16.206;2022-08-19T03:43:40;14.93;;;8.80;;
33810;SDS011;20119;48.334;16.206;2022-08-19T03:46:10;12.75;;;8.23;;
33810;SDS011;20119;48.334;16.206;2022-08-19T03:48:39;11.30;;;8.25;;
33810;SDS011;20119;48.334;16.206;2022-08-19T03:51:14;13.10;;;8.93;;
33810;SDS011;20119;48.334;16.206;2022-08-19T03:53:44;14.23;;;8.27;;
33810;SDS011;20119;48.334;16.206;2022-08-19T03:56:13;11.25;;;7.70;;
33810;SDS011;20119;48.334;16.206;2022-08-19T04:06:30;10.82;;;7.63;;
33810;SDS011;20119;48.334;16.206;2022-08-19T04:08:59;10.15;;;7.85;;
33810;SDS011;20119;48.334;16.206;2022-08-19T04:11:28;13.73;;;8.30;;
33810;SDS011;20119;48.334;16.206;2022-08-19T04:13:59;14.30;;;8.57;;
33810;SDS011;20119;48.334;16.206;2022-08-19T04:16:27;14.85;;;7.30;;
33810;SDS011;20119;48.334;16.206;2022-08-19T04:18:55;9.10;;;7.18;;
33810;SDS011;20119;48.334;16.206;2022-08-19T04:21:42;10.25;;;7.30;;
33810;SDS011;20119;48.334;16.206;2022-08-19T04:24:10;11.98;;;7.10;;
33810;SDS011;20119;48.334;16.206;2022-08-19T04:26:39;13.48;;;7.60;;
33810;SDS011;20119;48.334;16.206;2022-08-19T04:29:08;12.20;;;8.43;;
33810;SDS011;20119;48.334;16.206;2022-08-19T04:31:38;12.85;;;8.32;;
33810;SDS011;20119;48.334;16.206;2022-08-19T04:34:09;12.13;;;8.50;;
33810;SDS011;20119;48.334;16.206;2022-08-19T04:36:41;12.55;;;7.97;;
33810;SDS011;20119;48.334;16.206;2022-08-19T04:39:10;12.07;;;9.15;;
33810;SDS011;20119;48.334;16.206;2022-08-19T04:41:41;11.27;;;8.95;;
33810;SDS011;20119;48.334;16.206;2022-08-19T04:44:26;11.93;;;8.38;;
33810;SDS011;20119;48.334;16.206;2022-08-19T04:46:55;13.50;;;9.33;;
33810;SDS011;20119;48.334;16.206;2022-08-19T04:49:24;11.13;;;8.73;;
33810;SDS011;20119;48.334;16.206;2022-08-19T04:51:54;12.27;;;8.43;;
33810;SDS011;20119;48.334;16.206;2022-08-19T04:54:22;10.07;;;7.93;;
33810;SDS011;20119;48.334;16.206;2022-08-19T04:56:51;12.57;;;8.05;;
33810;SDS011;20119;48.334;16.206;2022-08-19T04:59:20;9.82;;;7.63;;
33810;SDS011;20119;48.334;16.206;2022-08-19T05:01:48;11.73;;;7.60;;
33810;SDS011;20119;48.334;16.206;2022-08-19T05:04:18;11.23;;;7.50;;
33810;SDS011;20119;48.334;16.206;2022-08-19T05:06:47;10.13;;;8.27;;
33810;SDS011;20119;48.334;16.206;2022-08-19T05:09:17;12.20;;;8.10;;
33810;SDS011;20119;48.334;16.206;2022-08-19T05:11:46;11.70;;;7.30;;
33810;SDS011;20119;48.334;16.206;2022-08-19T05:14:16;9.85;;;7.40;;
33810;SDS011;20119;48.334;16.206;2022-08-19T05:16:44;10.13;;;7.07;;
33810;SDS011;20119;48.334;16.206;2022-08-19T05:19:13;11.07;;;6.90;;
33810;SDS011;20119;48.334;16.206;2022-08-19T05:21:58;11.07;;;7.18;;
33810;SDS011;20119;48.334;16.206;2022-08-19T05:24:45;11.85;;;6.43;;
33810;SDS011;20119;48.334;16.206;2022-08-19T05:27:13;8.13;;;6.53;;
33810;SDS011;20119;48.334;16.206;2022-08-19T05:29:40;11.25;;;7.28;;
33810;SDS011;20119;48.334;16.206;2022-08-19T05:32:08;12.02;;;7.22;;
33810;SDS011;20119;48.334;16.206;2022-08-19T05:34:35;10.20;;;6.97;;
33810;SDS011;20119;48.334;16.206;2022-08-19T05:37:04;10.77;;;6.63;;
33810;SDS011;20119;48.334;16.206;2022-08-19T05:39:35;11.98;;;6.97;;
33810;SDS011;20119;48.334;16.206;2022-08-19T05:44:36;12.27;;;7.40;;
33810;SDS011;20119;48.334;16.206;2022-08-19T05:47:05;10.77;;;7.57;;
33810;SDS011;20119;48.334;16.206;2022-08-19T05:49:34;14.20;;;7.47;;
33810;SDS011;20119;48.334;16.206;2022-08-19T05:52:02;12.20;;;7.70;;
33810;SDS011;20119;48.334;16.206;2022-08-19T05:54:32;14.63;;;7.50;;
33810;SDS011;20119;48.334;16.206;2022-08-19T05:57:01;12.75;;;8.00;;
33810;SDS011;20119;48.334;16.206;2022-08-19T05:59:31;14.38;;;8.18;;
33810;SDS011;20119;48.334;16.206;2022-08-19T06:02:01;11.60;;;7.90;;
33810;SDS011;20119;48.334;16.206;2022-08-19T06:04:29;12.98;;;8.40;;
33810;SDS011;20119;48.334;16.206;2022-08-19T06:06:57;11.52;;;8.95;;
33810;SDS011;20119;48.334;16.206;2022-08-19T06:09:24;10.32;;;8.07;;
33810;SDS011;20119;48.334;16.206;2022-08-19T06:11:52;10.13;;;8.68;;
33810;SDS011;20119;48.334;16.206;2022-08-19T06:14:23;14.55;;;9.30;;
33810;SDS011;20119;48.334;16.206;2022-08-19T06:16:53;15.15;;;9.63;;
33810;SDS011;20119;48.334;16.206;2022-08-19T06:19:21;13.27;;;9.18;;
33810;SDS011;20119;48.334;16.206;2022-08-19T06:21:51;12.90;;;9.18;;
33810;SDS011;20119;48.334;16.206;2022-08-19T06:24:22;11.37;;;10.00;;
33810;SDS011;20119;48.334;16.206;2022-08-19T06:26:52;13.75;;;9.63;;
33810;SDS011;20119;48.334;16.206;2022-08-19T06:29:23;16.55;;;9.50;;
33810;SDS011;20119;48.334;16.206;2022-08-19T06:31:54;11.38;;;9.18;;
33810;SDS011;20119;48.334;16.206;2022-08-19T06:34:23;11.23;;;9.30;;
33810;SDS011;20119;48.334;16.206;2022-08-19T06:36:53;12.13;;;9.52;;
33810;SDS011;20119;48.334;16.206;2022-08-19T06:39:22;11.63;;;9.13;;
33810;SDS011;20119;48.334;16.206;2022-08-19T06:41:54;13.07;;;10.00;;
33810;SDS011;20119;48.334;16.206;2022-08-19T06:46:51;10.57;;;9.15;;
33810;SDS011;20119;48.334;16.206;2022-08-19T06:49:21;11.00;;;9.90;;
33810;SDS011;20119;48.334;16.206;2022-08-19T06:51:50;10.45;;;9.35;;
33810;SDS011;20119;48.334;16.206;2022-08-19T06:54:18;9.75;;;8.75;;
33810;SDS011;20119;48.334;16.206;2022-08-19T06:56:46;10.32;;;8.45;;
33810;SDS011;20119;48.334;16.206;2022-08-19T06:59:16;13.60;;;9.20;;
33810;SDS011;20119;48.334;16.206;2022-08-19T07:04:15;11.50;;;8.43;;
33810;SDS011;20119;48.334;16.206;2022-08-19T07:06:45;11.35;;;8.77;;
33810;SDS011;20119;48.334;16.206;2022-08-19T07:09:15;9.23;;;7.53;;
33810;SDS011;20119;48.334;16.206;2022-08-19T07:11:45;11.25;;;7.72;;
33810;SDS011;20119;48.334;16.206;2022-08-19T07:14:14;9.52;;;7.50;;
33810;SDS011;20119;48.334;16.206;2022-08-19T07:16:44;8.17;;;7.00;;
33810;SDS011;20119;48.334;16.206;2022-08-19T07:19:15;10.02;;;7.93;;
33810;SDS011;20119;48.334;16.206;2022-08-19T07:21:45;9.75;;;7.80;;
33810;SDS011;20119;48.334;16.206;2022-08-19T07:24:18;10.30;;;7.70;;
33810;SDS011;20119;48.334;16.206;2022-08-19T07:26:49;9.13;;;7.78;;
33810;SDS011;20119;48.334;16.206;2022-08-19T07:29:20;13.07;;;7.47;;
33810;SDS011;20119;48.334;16.206;2022-08-19T07:31:49;8.82;;;6.95;;
33810;SDS011;20119;48.334;16.206;2022-08-19T07:34:22;11.60;;;7.22;;
33810;SDS011;20119;48.334;16.206;2022-08-19T07:36:52;10.38;;;6.93;;
33810;SDS011;20119;48.334;16.206;2022-08-19T07:39:25;9.35;;;6.13;;
33810;SDS011;20119;48.334;16.206;2022-08-19T07:41:57;9.05;;;6.32;;
33810;SDS011;20119;48.334;16.206;2022-08-19T07:44:25;10.50;;;7.28;;
33810;SDS011;20119;48.334;16.206;2022-08-19T07:46:54;10.57;;;7.00;;
33810;SDS011;20119;48.334;16.206;2022-08-19T07:49:24;9.65;;;6.25;;
33810;SDS011;20119;48.334;16.206;2022-08-19T07:54:22;13.57;;;7.47;;
33810;SDS011;20119;48.334;16.206;2022-08-19T07:56:56;13.95;;;9.02;;
33810;SDS011;20119;48.334;16.206;2022-08-19T07:59:27;14.80;;;9.98;;
33810;SDS011;20119;48.334;16.206;2022-08-19T08:01:56;13.88;;;9.85;;
33810;SDS011;20119;48.334;16.206;2022-08-19T08:04:27;11.27;;;6.90;;
33810;SDS011;20119;48.334;16.206;2022-08-19T08:07:13;10.02;;;7.25;;
33810;SDS011;20119;48.334;16.206;2022-08-19T08:09:58;11.48;;;6.70;;
33810;SDS011;20119;48.334;16.206;2022-08-19T08:12:29;9.43;;;6.13;;
33810;SDS011;20119;48.334;16.206;2022-08-19T08:15:03;12.02;;;7.90;;
33810;SDS011;20119;48.334;16.206;2022-08-19T08:17:35;9.30;;;6.70;;
33810;SDS011;20119;48.334;16.206;2022-08-19T08:20:06;10.20;;;7.95;;
33810;SDS011;20119;48.334;16.206;2022-08-19T08:22:35;11.00;;;6.57;;
33810;SDS011;20119;48.334;16.206;2022-08-19T08:25:20;12.30;;;7.38;;
33810;SDS011;20119;48.334;16.206;2022-08-19T08:27:49;9.32;;;6.80;;
33810;SDS011;20119;48.334;16.206;2022-08-19T08:30:19;8.65;;;6.53;;
33810;SDS011;20119;48.334;16.206;2022-08-19T08:32:49;9.20;;;6.75;;
33810;SDS011;20119;48.334;16.206;2022-08-19T08:35:20;8.60;;;6.20;;
33810;SDS011;20119;48.334;16.206;2022-08-19T08:37:50;9.70;;;6.63;;
33810;SDS011;20119;48.334;16.206;2022-08-19T08:40:20;9.00;;;6.65;;
33810;SDS011;20119;48.334;16.206;2022-08-19T08:42:55;11.85;;;6.32;;
33810;SDS011;20119;48.334;16.206;2022-08-19T08:45:27;7.32;;;6.45;;
33810;SDS011;20119;48.334;16.206;2022-08-19T08:47:57;7.30;;;6.60;;
33810;SDS011;20119;48.334;16.206;2022-08-19T08:50:34;9.65;;;6.65;;
33810;SDS011;20119;48.334;16.206;2022-08-19T08:53:07;7.55;;;6.15;;
33810;SDS011;20119;48.334;16.206;2022-08-19T08:55:37;10.20;;;5.88;;
33810;SDS011;20119;48.334;16.206;2022-08-19T08:58:12;8.43;;;5.82;;
33810;SDS011;20119;48.334;16.206;2022-08-19T09:00:46;9.85;;;6.18;;
33810;SDS011;20119;48.334;16.206;2022-08-19T09:03:17;8.27;;;6.32;;
33810;SDS011;20119;48.334;16.206;2022-08-19T09:05:50;11.73;;;5.88;;
33810;SDS011;20119;48.334;16.206;2022-08-19T09:08:27;6.68;;;5.95;;
33810;SDS011;20119;48.334;16.206;2022-08-19T09:11:07;8.32;;;5.50;;
33810;SDS011;20119;48.334;16.206;2022-08-19T09:13:41;10.95;;;6.03;;
33810;SDS011;20119;48.334;16.206;2022-08-19T09:16:16;9.00;;;6.40;;
33810;SDS011;20119;48.334;16.206;2022-08-19T09:18:49;7.60;;;6.55;;
33810;SDS011;20119;48.334;16.206;2022-08-19T09:21:20;9.57;;;5.40;;
33810;SDS011;20119;48.334;16.206;2022-08-19T09:23:48;8.82;;;5.95;;
33810;SDS011;20119;48.334;16.206;2022-08-19T09:26:17;8.48;;;6.20;;
33810;SDS011;20119;48.334;16.206;2022-08-19T09:28:46;6.88;;;6.18;;
33810;SDS011;20119;48.334;16.206;2022-08-19T09:31:16;7.45;;;5.70;;
33810;SDS011;20119;48.334;16.206;2022-08-19T09:33:45;9.52;;;5.80;;
33810;SDS011;20119;48.334;16.206;2022-08-19T09:36:13;10.82;;;6.05;;
33810;SDS011;20119;48.334;16.206;2022-08-19T09:38:45;7.30;;;5.47;;
33810;SDS011;20119;48.334;16.206;2022-08-19T09:41:14;9.10;;;5.43;;
33810;SDS011;20119;48.334;16.206;2022-08-19T09:43:44;6.53;;;5.75;;
33810;SDS011;20119;48.334;16.206;2022-08-19T09:48:49;6.35;;;5.65;;
33810;SDS011;20119;48.334;16.206;2022-08-19T09:51:19;6.03;;;5.43;;
33810;SDS011;20119;48.334;16.206;2022-08-19T09:53:50;10.73;;;6.40;;
33810;SDS011;20119;48.334;16.206;2022-08-19T09:56:19;10.63;;;6.22;;
33810;SDS011;20119;48.334;16.206;2022-08-19T09:58:48;8.05;;;6.00;;
33810;SDS011;20119;48.334;16.206;2022-08-19T10:01:17;6.82;;;5.13;;
33810;SDS011;20119;48.334;16.206;2022-08-19T10:03:47;6.28;;;5.20;;
33810;SDS011;20119;48.334;16.206;2022-08-19T10:06:18;6.45;;;5.30;;
33810;SDS011;20119;48.334;16.206;2022-08-19T10:08:46;8.90;;;6.10;;
33810;SDS011;20119;48.334;16.206;2022-08-19T10:11:15;6.43;;;5.00;;
33810;SDS011;20119;48.334;16.206;2022-08-19T10:13:45;6.22;;;5.63;;
33810;SDS011;20119;48.334;16.206;2022-08-19T10:16:16;8.38;;;5.10;;
33810;SDS011;20119;48.334;16.206;2022-08-19T10:19:00;6.15;;;5.10;;
33810;SDS011;20119;48.334;16.206;2022-08-19T10:21:28;5.82;;;4.95;;
33810;SDS011;20119;48.334;16.206;2022-08-19T10:23:58;7.97;;;5.47;;
33810;SDS011;20119;48.334;16.206;2022-08-19T10:26:32;7.70;;;5.20;;
33810;SDS011;20119;48.334;16.206;2022-08-19T10:29:03;6.78;;;5.00;;
33810;SDS011;20119;48.334;16.206;2022-08-19T10:31:31;7.63;;;5.10;;
33810;SDS011;20119;48.334;16.206;2022-08-19T10:34:00;7.50;;;5.30;;
33810;SDS011;20119;48.334;16.206;2022-08-19T10:36:30;10.00;;;6.05;;
33810;SDS011;20119;48.334;16.206;2022-08-19T10:39:00;6.97;;;5.78;;
33810;SDS011;20119;48.334;16.206;2022-08-19T10:41:31;10.98;;;5.85;;
33810;SDS011;20119;48.334;16.206;2022-08-19T10:44:03;9.27;;;5.60;;
33810;SDS011;20119;48.334;16.206;2022-08-19T10:46:33;7.65;;;5.32;;
33810;SDS011;20119;48.334;16.206;2022-08-19T10:49:07;9.40;;;5.40;;
33810;SDS011;20119;48.334;16.206;2022-08-19T10:51:37;9.73;;;5.43;;
33810;SDS011;20119;48.334;16.206;2022-08-19T10:54:22;8.50;;;5.78;;
33810;SDS011;20119;48.334;16.206;2022-08-19T10:57:11;10.15;;;5.57;;
33810;SDS011;20119;48.334;16.206;2022-08-19T10:59:38;8.80;;;5.95;;
33810;SDS011;20119;48.334;16.206;2022-08-19T11:02:07;9.23;;;6.30;;
33810;SDS011;20119;48.334;16.206;2022-08-19T11:04:37;6.68;;;5.78;;
33810;SDS011;20119;48.334;16.206;2022-08-19T11:07:06;7.20;;;5.70;;
33810;SDS011;20119;48.334;16.206;2022-08-19T11:09:36;10.35;;;6.00;;
33810;SDS011;20119;48.334;16.206;2022-08-19T11:12:07;11.55;;;6.32;;
33810;SDS011;20119;48.334;16.206;2022-08-19T11:14:39;9.35;;;6.28;;
33810;SDS011;20119;48.334;16.206;2022-08-19T11:17:06;8.02;;;6.18;;
33810;SDS011;20119;48.334;16.206;2022-08-19T11:19:34;13.45;;;6.43;;
33810;SDS011;20119;48.334;16.206;2022-08-19T11:22:02;7.40;;;5.97;;
33810;SDS011;20119;48.334;16.206;2022-08-19T11:24:30;11.07;;;5.60;;
33810;SDS011;20119;48.334;16.206;2022-08-19T11:27:00;7.72;;;5.53;;
33810;SDS011;20119;48.334;16.206;2022-08-19T11:29:30;10.38;;;5.07;;
33810;SDS011;20119;48.334;16.206;2022-08-19T11:32:02;7.20;;;5.20;;
33810;SDS011;20119;48.334;16.206;2022-08-19T11:34:30;10.73;;;5.07;;
33810;SDS011;20119;48.334;16.206;2022-08-19T11:36:57;9.48;;;5.25;;
33810;SDS011;20119;48.334;16.206;2022-08-19T11:39:27;8.35;;;4.93;;
33810;SDS011;20119;48.334;16.206;2022-08-19T11:41:57;12.20;;;5.20;;
33810;SDS011;20119;48.334;16.206;2022-08-19T11:44:26;12.68;;;5.13;;
33810;SDS011;20119;48.334;16.206;2022-08-19T11:46:56;9.85;;;5.05;;
33810;SDS011;20119;48.334;16.206;2022-08-19T11:51:53;10.93;;;5.25;;
33810;SDS011;20119;48.334;16.206;2022-08-19T11:54:23;9.55;;;5.30;;
33810;SDS011;20119;48.334;16.206;2022-08-19T11:56:50;7.70;;;4.60;;
33810;SDS011;20119;48.334;16.206;2022-08-19T11:59:17;14.43;;;5.15;;
33810;SDS011;20119;48.334;16.206;2022-08-19T12:01:46;9.57;;;5.10;;
33810;SDS011;20119;48.334;16.206;2022-08-19T12:04:13;9.45;;;4.85;;
33810;SDS011;20119;48.334;16.206;2022-08-19T12:06:42;12.05;;;4.60;;
33810;SDS011;20119;48.334;16.206;2022-08-19T12:09:10;11.90;;;4.60;;
33810;SDS011;20119;48.334;16.206;2022-08-19T12:11:39;11.20;;;4.65;;
33810;SDS011;20119;48.334;16.206;2022-08-19T12:14:08;11.77;;;4.72;;
33810;SDS011;20119;48.334;16.206;2022-08-19T12:16:43;10.95;;;4.63;;
33810;SDS011;20119;48.334;16.206;2022-08-19T12:19:12;14.25;;;4.60;;
33810;SDS011;20119;48.334;16.206;2022-08-19T12:21:40;13.57;;;5.03;;
33810;SDS011;20119;48.334;16.206;2022-08-19T12:24:09;14.15;;;4.65;;
33810;SDS011;20119;48.334;16.206;2022-08-19T12:26:37;13.60;;;4.63;;
33810;SDS011;20119;48.334;16.206;2022-08-19T12:29:05;14.80;;;4.65;;
33810;SDS011;20119;48.334;16.206;2022-08-19T12:31:33;13.43;;;4.20;;
33810;SDS011;20119;48.334;16.206;2022-08-19T12:34:00;13.23;;;4.10;;
33810;SDS011;20119;48.334;16.206;2022-08-19T12:36:28;16.27;;;4.00;;
33810;SDS011;20119;48.334;16.206;2022-08-19T12:38:57;13.93;;;3.83;;
33810;SDS011;20119;48.334;16.206;2022-08-19T12:41:25;14.90;;;3.83;;
33810;SDS011;20119;48.334;16.206;2022-08-19T12:43:53;18.20;;;3.85;;
33810;SDS011;20119;48.334;16.206;2022-08-19T12:46:21;13.48;;;3.63;;
33810;SDS011;20119;48.334;16.206;2022-08-19T12:48:49;17.67;;;4.22;;
33810;SDS011;20119;48.334;16.206;2022-08-19T12:51:18;21.85;;;4.55;;
33810;SDS011;20119;48.334;16.206;2022-08-19T12:53:45;15.02;;;4.35;;
33810;SDS011;20119;48.334;16.206;2022-08-19T12:56:15;17.50;;;4.30;;
33810;SDS011;20119;48.334;16.206;2022-08-19T12:58:44;18.98;;;4.60;;
33810;SDS011;20119;48.334;16.206;2022-08-19T13:01:12;18.40;;;4.22;;
33810;SDS011;20119;48.334;16.206;2022-08-19T13:03:41;17.20;;;4.55;;
33810;SDS011;20119;48.334;16.206;2022-08-19T13:06:12;17.88;;;4.35;;
33810;SDS011;20119;48.334;16.206;2022-08-19T13:08:40;17.13;;;4.60;;
33810;SDS011;20119;48.334;16.206;2022-08-19T13:11:09;17.92;;;4.95;;
33810;SDS011;20119;48.334;16.206;2022-08-19T13:13:40;24.42;;;4.63;;
33810;SDS011;20119;48.334;16.206;2022-08-19T13:16:09;19.55;;;4.80;;
33810;SDS011;20119;48.334;16.206;2022-08-19T13:18:39;17.33;;;4.72;;
33810;SDS011;20119;48.334;16.206;2022-08-19T13:21:08;16.93;;;4.50;;
33810;SDS011;20119;48.334;16.206;2022-08-19T13:23:38;13.07;;;4.22;;
33810;SDS011;20119;48.334;16.206;2022-08-19T13:26:07;14.77;;;4.63;;
33810;SDS011;20119;48.334;16.206;2022-08-19T13:28:35;20.67;;;5.38;;
33810;SDS011;20119;48.334;16.206;2022-08-19T13:31:22;18.15;;;4.75;;
33810;SDS011;20119;48.334;16.206;2022-08-19T13:34:08;13.52;;;4.40;;
33810;SDS011;20119;48.334;16.206;2022-08-19T13:36:35;15.27;;;4.20;;
33810;SDS011;20119;48.334;16.206;2022-08-19T13:39:04;15.02;;;4.10;;
33810;SDS011;20119;48.334;16.206;2022-08-19T13:41:33;15.93;;;4.50;;
33810;SDS011;20119;48.334;16.206;2022-08-19T13:44:01;13.27;;;4.03;;
33810;SDS011;20119;48.334;16.206;2022-08-19T13:46:31;15.70;;;3.67;;
33810;SDS011;20119;48.334;16.206;2022-08-19T13:48:58;16.27;;;4.60;;
33810;SDS011;20119;48.334;16.206;2022-08-19T13:51:25;14.80;;;4.07;;
33810;SDS011;20119;48.334;16.206;2022-08-19T13:53:53;13.32;;;4.30;;
33810;SDS011;20119;48.334;16.206;2022-08-19T13:56:21;19.08;;;4.30;;
33810;SDS011;20119;48.334;16.206;2022-08-19T13:58:47;21.08;;;4.78;;
33810;SDS011;20119;48.334;16.206;2022-08-19T14:01:18;13.60;;;4.22;;
33810;SDS011;20119;48.334;16.206;2022-08-19T14:03:48;15.10;;;4.38;;
33810;SDS011;20119;48.334;16.206;2022-08-19T14:06:16;16.35;;;4.38;;
33810;SDS011;20119;48.334;16.206;2022-08-19T14:08:44;18.08;;;4.13;;
33810;SDS011;20119;48.334;16.206;2022-08-19T14:11:12;15.23;;;4.00;;
33810;SDS011;20119;48.334;16.206;2022-08-19T14:13:40;13.95;;;4.00;;
33810;SDS011;20119;48.334;16.206;2022-08-19T14:16:09;12.35;;;3.80;;
33810;SDS011;20119;48.334;16.206;2022-08-19T14:18:37;13.90;;;4.30;;
33810;SDS011;20119;48.334;16.206;2022-08-19T14:21:06;15.75;;;3.97;;
33810;SDS011;20119;48.334;16.206;2022-08-19T14:23:40;15.02;;;4.65;;
33810;SDS011;20119;48.334;16.206;2022-08-19T14:26:08;14.68;;;3.97;;
33810;SDS011;20119;48.334;16.206;2022-08-19T14:28:37;16.23;;;4.47;;
33810;SDS011;20119;48.334;16.206;2022-08-19T14:31:06;13.87;;;4.03;;
33810;SDS011;20119;48.334;16.206;2022-08-19T14:33:34;16.60;;;4.07;;
33810;SDS011;20119;48.334;16.206;2022-08-19T14:36:03;12.98;;;4.25;;
33810;SDS011;20119;48.334;16.206;2022-08-19T14:38:32;13.75;;;3.90;;
33810;SDS011;20119;48.334;16.206;2022-08-19T14:48:39;13.15;;;3.45;;
33810;SDS011;20119;48.334;16.206;2022-08-19T14:51:09;12.65;;;2.88;;
33810;SDS011;20119;48.334;16.206;2022-08-19T14:53:39;9.45;;;3.10;;
33810;SDS011;20119;48.334;16.206;2022-08-19T14:58:35;9.60;;;2.60;;
33810;SDS011;20119;48.334;16.206;2022-08-19T15:01:02;11.68;;;2.90;;
33810;SDS011;20119;48.334;16.206;2022-08-19T15:03:30;13.65;;;2.88;;
33810;SDS011;20119;48.334;16.206;2022-08-19T15:05:58;15.75;;;2.90;;
33810;SDS011;20119;48.334;16.206;2022-08-19T15:08:27;9.95;;;2.30;;
33810;SDS011;20119;48.334;16.206;2022-08-19T15:10:57;11.63;;;3.13;;
33810;SDS011;20119;48.334;16.206;2022-08-19T15:13:26;11.65;;;2.90;;
33810;SDS011;20119;48.334;16.206;2022-08-19T15:15:55;10.33;;;2.90;;
33810;SDS011;20119;48.334;16.206;2022-08-19T15:18:24;10.48;;;2.83;;
33810;SDS011;20119;48.334;16.206;2022-08-19T15:20:52;12.73;;;2.92;;
33810;SDS011;20119;48.334;16.206;2022-08-19T15:23:19;14.93;;;3.20;;
33810;SDS011;20119;48.334;16.206;2022-08-19T15:25:47;11.73;;;3.30;;
33810;SDS011;20119;48.334;16.206;2022-08-19T15:28:21;11.73;;;3.20;;
33810;SDS011;20119;48.334;16.206;2022-08-19T15:30:51;8.60;;;2.95;;
33810;SDS011;20119;48.334;16.206;2022-08-19T15:33:23;11.73;;;2.85;;
33810;SDS011;20119;48.334;16.206;2022-08-19T15:35:51;13.55;;;2.97;;
33810;SDS011;20119;48.334;16.206;2022-08-19T15:38:19;9.80;;;3.05;;